createdAt,value
2022-11-21T00:01:26.220Z,21.80
2022-11-21T00:03:53.347Z,21.80
2022-11-21T00:06:20.955Z,21.80
2022-11-21T00:08:47.946Z,21.80
2022-11-21T00:11:15.752Z,21.80
2022-11-21T00:13:43.388Z,21.80
2022-11-21T00:16:14.519Z,21.80
2022-11-21T00:18:42.429Z,21.80
2022-11-21T00:21:14.592Z,21.80
2022-11-21T00:23:43.264Z,21.70
2022-11-21T00:26:12.345Z,21.70
2022-11-21T00:28:39.587Z,21.70
2022-11-21T00:31:07.463Z,21.70
2022-11-21T00:33:39.046Z,21.70
2022-11-21T00:36:08.673Z,21.70
2022-11-21T00:38:36.418Z,21.70
2022-11-21T00:41:03.427Z,21.70
2022-11-21T00:43:30.340Z,21.70
2022-11-21T00:45:58.588Z,21.70
2022-11-21T00:48:25.509Z,21.70
2022-11-21T00:50:52.432Z,21.70
2022-11-21T00:53:19.327Z,21.70
2022-11-21T00:55:46.209Z,21.70
2022-11-21T00:58:13.097Z,21.70
2022-11-21T01:00:40.052Z,21.60
2022-11-21T01:03:06.986Z,21.70
2022-11-21T01:05:33.854Z,21.60
2022-11-21T01:08:00.937Z,21.70
2022-11-21T01:10:27.947Z,21.60
2022-11-21T01:12:55.929Z,21.70
2022-11-21T01:15:22.994Z,21.60
2022-11-21T01:17:49.954Z,21.60
2022-11-21T01:20:16.975Z,21.60
2022-11-21T01:22:46.697Z,21.60
2022-11-21T01:25:13.854Z,21.60
2022-11-21T01:27:40.733Z,21.60
2022-11-21T01:30:08.360Z,21.60
2022-11-21T01:32:35.360Z,21.60
2022-11-21T01:35:02.214Z,21.60
2022-11-21T01:37:29.090Z,21.60
2022-11-21T01:39:56.059Z,21.60
2022-11-21T01:42:23.097Z,21.60
2022-11-21T01:44:53.580Z,21.60
2022-11-21T01:47:22.621Z,21.60
2022-11-21T01:49:51.899Z,21.60
2022-11-21T01:52:30.534Z,21.50
2022-11-21T01:55:08.033Z,21.60
2022-11-21T01:57:38.010Z,21.50
2022-11-21T02:00:15.992Z,21.60
2022-11-21T02:02:55.311Z,21.50
2022-11-21T02:05:29.696Z,21.50
2022-11-21T02:08:03.828Z,21.50
2022-11-21T02:10:30.915Z,21.50
2022-11-21T02:13:00.223Z,21.50
2022-11-21T02:15:29.853Z,21.50
2022-11-21T02:17:57.057Z,21.50
2022-11-21T02:20:27.272Z,21.40
2022-11-21T02:23:02.006Z,21.50
2022-11-21T02:25:37.008Z,21.50
2022-11-21T02:28:12.383Z,21.50
2022-11-21T02:30:41.922Z,21.50
2022-11-21T02:33:09.943Z,21.50
2022-11-21T02:35:37.297Z,21.50
2022-11-21T02:38:22.522Z,21.40
2022-11-21T02:41:00.672Z,21.50
2022-11-21T02:43:42.094Z,21.40
2022-11-21T02:46:08.984Z,21.40
2022-11-21T02:48:38.489Z,21.40
2022-11-21T02:51:05.617Z,21.40
2022-11-21T02:53:32.886Z,21.40
2022-11-21T02:55:59.743Z,21.40
2022-11-21T02:58:27.080Z,21.40
2022-11-21T03:00:55.303Z,21.40
2022-11-21T03:03:22.833Z,21.40
2022-11-21T03:05:49.961Z,21.40
2022-11-21T03:08:17.111Z,21.40
2022-11-21T03:10:43.958Z,21.40
2022-11-21T03:13:10.922Z,21.40
2022-11-21T03:15:37.801Z,21.40
2022-11-21T03:18:05.420Z,21.40
2022-11-21T03:20:34.813Z,21.40
2022-11-21T03:23:02.345Z,21.40
2022-11-21T03:25:32.266Z,21.40
2022-11-21T03:27:59.182Z,21.40
2022-11-21T03:30:28.307Z,21.40
2022-11-21T03:32:58.556Z,21.40
2022-11-21T03:35:26.606Z,21.40
2022-11-21T03:37:53.648Z,21.30
2022-11-21T03:40:20.552Z,21.30
2022-11-21T03:42:47.404Z,21.30
2022-11-21T03:45:14.320Z,21.30
2022-11-21T03:47:41.699Z,21.30
2022-11-21T03:50:08.903Z,21.30
2022-11-21T03:52:35.767Z,21.30
2022-11-21T03:55:02.786Z,21.30
2022-11-21T03:57:29.707Z,21.50
2022-11-21T03:59:56.507Z,21.30
2022-11-21T04:02:23.447Z,21.30
2022-11-21T04:04:50.282Z,21.30
2022-11-21T04:07:17.243Z,21.30
2022-11-21T04:09:44.195Z,21.30
2022-11-21T04:12:11.021Z,21.30
2022-11-21T04:14:38.011Z,21.30
2022-11-21T04:17:05.046Z,21.30
2022-11-21T04:19:31.930Z,21.30
2022-11-21T04:22:00.616Z,21.30
2022-11-21T04:24:29.852Z,21.30
2022-11-21T04:26:56.953Z,21.30
2022-11-21T04:29:23.858Z,21.30
2022-11-21T04:31:50.716Z,21.30
2022-11-21T04:34:17.775Z,21.30
2022-11-21T04:36:44.737Z,21.30
2022-11-21T04:39:13.472Z,21.30
2022-11-21T04:41:40.364Z,21.30
2022-11-21T04:44:07.556Z,21.20
2022-11-21T04:46:34.473Z,21.30
2022-11-21T04:49:01.465Z,21.30
2022-11-21T04:51:28.368Z,21.30
2022-11-21T04:53:55.229Z,21.20
2022-11-21T04:56:22.092Z,21.30
2022-11-21T04:58:53.544Z,21.20
2022-11-21T05:01:20.451Z,21.20
2022-11-21T05:03:47.370Z,21.20
2022-11-21T05:06:14.319Z,21.20
2022-11-21T05:08:41.208Z,21.20
2022-11-21T05:11:28.236Z,21.20
2022-11-21T05:13:55.494Z,21.20
2022-11-21T05:16:22.394Z,21.20
2022-11-21T05:18:49.273Z,21.20
2022-11-21T05:21:16.365Z,21.20
2022-11-21T05:23:43.217Z,21.20
2022-11-21T05:26:10.139Z,21.20
2022-11-21T05:28:37.041Z,21.20
2022-11-21T05:31:03.918Z,21.20
2022-11-21T05:33:30.762Z,21.20
2022-11-21T05:35:57.555Z,21.20
2022-11-21T05:38:26.780Z,21.20
2022-11-21T05:40:53.695Z,21.10
2022-11-21T05:43:38.910Z,21.10
2022-11-21T05:46:06.298Z,21.10
2022-11-21T05:48:34.328Z,21.10
2022-11-21T05:51:01.253Z,21.10
2022-11-21T05:53:28.272Z,21.10
2022-11-21T05:55:55.153Z,21.10
2022-11-21T05:58:22.694Z,21.10
2022-11-21T06:00:49.631Z,21.10
2022-11-21T06:03:28.387Z,21.20
2022-11-21T06:06:07.626Z,21.10
2022-11-21T06:08:41.558Z,21.10
2022-11-21T06:11:12.223Z,21.10
2022-11-21T06:13:39.793Z,21.10
2022-11-21T06:16:15.981Z,21.10
2022-11-21T06:18:50.748Z,21.10
2022-11-21T06:21:22.025Z,21.10
2022-11-21T06:23:53.886Z,21.10
2022-11-21T06:26:24.935Z,21.10
2022-11-21T06:28:52.152Z,21.10
2022-11-21T06:31:23.288Z,21.10
2022-11-21T06:33:56.198Z,21.10
2022-11-21T06:36:24.098Z,21.10
2022-11-21T06:38:55.156Z,21.10
2022-11-21T06:41:26.288Z,21.10
2022-11-21T06:43:53.513Z,21.10
2022-11-21T06:46:21.664Z,21.10
2022-11-21T06:48:48.600Z,21.10
2022-11-21T06:51:24.541Z,21.10
2022-11-21T06:53:59.650Z,21.10
2022-11-21T06:56:29.585Z,21.10
2022-11-21T06:58:57.284Z,21.10
2022-11-21T07:01:25.251Z,21.20
2022-11-21T07:03:53.582Z,21.20
2022-11-21T07:06:21.022Z,21.20
2022-11-21T07:08:52.476Z,21.30
2022-11-21T07:11:27.039Z,21.40
2022-11-21T07:13:54.796Z,21.50
2022-11-21T07:16:21.718Z,21.50
2022-11-21T07:18:48.721Z,21.60
2022-11-21T07:21:15.675Z,21.70
2022-11-21T07:23:42.769Z,21.80
2022-11-21T07:26:11.281Z,21.80
2022-11-21T07:28:38.685Z,21.90
2022-11-21T07:31:12.906Z,22.00
2022-11-21T07:33:43.184Z,22.00
2022-11-21T07:36:11.827Z,22.10
2022-11-21T07:38:38.788Z,22.10
2022-11-21T07:41:05.652Z,22.20
2022-11-21T07:43:32.641Z,22.30
2022-11-21T07:45:59.562Z,22.30
2022-11-21T07:48:26.647Z,22.40
2022-11-21T07:50:53.545Z,22.50
2022-11-21T07:53:20.506Z,22.50
2022-11-21T07:55:50.007Z,22.50
2022-11-21T07:58:18.064Z,22.60
2022-11-21T08:00:44.995Z,22.70
2022-11-21T08:03:13.726Z,22.70
2022-11-21T08:05:43.578Z,22.80
2022-11-21T08:08:13.436Z,22.80
2022-11-21T08:10:46.015Z,22.80
2022-11-21T08:13:14.035Z,22.90
2022-11-21T08:15:41.642Z,22.90
2022-11-21T08:18:14.459Z,23.00
2022-11-21T08:20:42.763Z,23.00
2022-11-21T08:23:10.839Z,23.00
2022-11-21T08:25:39.893Z,23.10
2022-11-21T08:28:09.663Z,24.60
2022-11-21T08:30:38.492Z,23.10
2022-11-21T08:33:06.923Z,23.10
2022-11-21T08:35:38.234Z,23.20
2022-11-21T08:38:06.823Z,23.30
2022-11-21T08:40:35.433Z,23.30
2022-11-21T08:43:06.286Z,23.30
2022-11-21T08:45:37.677Z,23.30
2022-11-21T08:48:11.189Z,23.40
2022-11-21T08:50:38.286Z,23.40
2022-11-21T08:53:05.338Z,23.40
2022-11-21T08:55:32.510Z,23.40
2022-11-21T08:57:59.486Z,23.40
2022-11-21T09:00:29.006Z,23.50
2022-11-21T09:02:56.035Z,23.50
2022-11-21T09:05:23.171Z,23.50
2022-11-21T09:07:59.373Z,23.50
2022-11-21T09:10:27.377Z,23.60
2022-11-21T09:12:57.291Z,23.50
2022-11-21T09:15:42.584Z,23.50
2022-11-21T09:18:12.081Z,23.60
2022-11-21T09:20:45.031Z,23.60
2022-11-21T09:23:15.133Z,23.50
2022-11-21T09:25:45.497Z,23.50
2022-11-21T09:28:14.204Z,23.50
2022-11-21T09:30:42.696Z,23.40
2022-11-21T09:33:16.830Z,23.50
2022-11-21T09:35:44.603Z,23.60
2022-11-21T09:38:11.789Z,23.60
2022-11-21T09:40:46.010Z,23.70
2022-11-21T09:43:44.704Z,23.70
2022-11-21T09:46:17.503Z,23.70
2022-11-21T09:49:05.324Z,23.80
2022-11-21T09:51:38.668Z,23.80
2022-11-21T09:54:31.715Z,23.80
2022-11-21T09:57:00.211Z,23.90
2022-11-21T09:59:37.098Z,23.80
2022-11-21T10:02:24.571Z,23.80
2022-11-21T10:04:52.697Z,23.80
2022-11-21T10:07:32.249Z,23.80
2022-11-21T10:10:20.314Z,23.90
2022-11-21T10:12:56.752Z,23.90
2022-11-21T10:15:41.771Z,23.90
2022-11-21T10:18:39.705Z,24.00
2022-11-21T10:21:24.649Z,24.00
2022-11-21T10:23:54.403Z,24.00
2022-11-21T10:26:41.644Z,24.00
2022-11-21T10:29:26.067Z,24.00
2022-11-21T10:32:01.811Z,24.00
2022-11-21T10:34:40.571Z,24.00
2022-11-21T10:37:45.214Z,24.00
2022-11-21T10:40:40.962Z,24.10
2022-11-21T10:43:43.437Z,24.10
2022-11-21T10:46:12.534Z,24.10
2022-11-21T10:48:39.523Z,24.10
2022-11-21T10:51:24.495Z,24.20
2022-11-21T10:54:28.375Z,24.10
2022-11-21T10:57:15.497Z,24.20
2022-11-21T11:00:26.543Z,24.40
2022-11-21T11:03:09.232Z,24.10
2022-11-21T11:05:41.566Z,24.10
2022-11-21T11:08:14.909Z,24.20
2022-11-21T11:10:46.299Z,24.20
2022-11-21T11:13:46.927Z,24.20
2022-11-21T11:16:23.887Z,24.20
2022-11-21T11:19:01.924Z,24.20
2022-11-21T11:21:50.832Z,24.20
2022-11-21T11:24:17.696Z,24.30
2022-11-21T11:26:50.115Z,24.30
2022-11-21T11:29:30.599Z,24.60
2022-11-21T11:32:03.828Z,24.40
2022-11-21T11:34:42.022Z,24.40
2022-11-21T11:37:21.133Z,24.50
2022-11-21T11:40:13.933Z,24.50
2022-11-21T11:43:11.401Z,24.60
2022-11-21T11:46:53.586Z,24.60
2022-11-21T11:50:11.427Z,24.70
2022-11-21T11:53:06.912Z,24.70
2022-11-21T11:55:44.551Z,24.80
2022-11-21T11:58:49.623Z,24.70
2022-11-21T12:01:53.087Z,24.80
2022-11-21T12:04:23.909Z,24.80
2022-11-21T12:10:12.979Z,24.80
2022-11-21T12:12:49.396Z,24.80
2022-11-21T12:15:48.976Z,24.80
2022-11-21T12:18:15.874Z,24.80
2022-11-21T12:21:00.726Z,24.80
2022-11-21T12:24:02.156Z,24.80
2022-11-21T12:26:39.696Z,24.80
2022-11-21T12:29:40.938Z,24.80
2022-11-21T12:33:00.219Z,24.80
2022-11-21T12:35:47.746Z,24.80
2022-11-21T12:38:54.012Z,24.70
2022-11-21T12:42:13.564Z,24.60
2022-11-21T12:45:29.460Z,24.70
2022-11-21T12:48:33.049Z,24.70
2022-11-21T12:51:51.975Z,24.70
2022-11-21T12:55:01.348Z,24.70
2022-11-21T12:58:01.922Z,24.80
2022-11-21T13:00:31.875Z,24.80
2022-11-21T13:03:30.456Z,24.50
2022-11-21T13:05:59.430Z,24.60
2022-11-21T13:08:35.419Z,24.70
2022-11-21T13:11:59.267Z,24.70
2022-11-21T13:14:42.919Z,24.80
2022-11-21T13:17:30.799Z,24.80
2022-11-21T13:20:19.746Z,24.90
2022-11-21T13:22:47.256Z,24.90
2022-11-21T13:25:14.997Z,24.90
2022-11-21T13:27:43.864Z,24.90
2022-11-21T13:30:15.178Z,24.90
2022-11-21T13:32:54.876Z,24.90
2022-11-21T13:35:21.839Z,25.00
2022-11-21T13:38:06.451Z,24.90
2022-11-21T13:40:40.116Z,25.00
2022-11-21T13:45:59.616Z,25.00
2022-11-21T13:48:32.089Z,24.90
2022-11-21T13:51:16.728Z,25.00
2022-11-21T13:54:20.964Z,25.00
2022-11-21T13:57:15.858Z,25.00
2022-11-21T14:00:06.771Z,25.00
2022-11-21T14:03:30.802Z,25.00
2022-11-21T14:06:32.934Z,25.00
2022-11-21T14:09:24.410Z,24.90
2022-11-21T14:12:01.783Z,24.90
2022-11-21T14:14:54.806Z,24.90
2022-11-21T14:17:47.355Z,24.80
2022-11-21T14:20:26.945Z,24.80
2022-11-21T14:23:03.462Z,24.80
2022-11-21T14:25:41.771Z,24.70
2022-11-21T14:28:34.053Z,24.70
2022-11-21T14:31:09.596Z,24.70
2022-11-21T14:33:49.930Z,24.60
2022-11-21T14:36:30.043Z,24.60
2022-11-21T14:39:39.663Z,24.60
2022-11-21T14:42:03.440Z,24.50
2022-11-21T14:44:33.035Z,24.50
2022-11-21T14:47:25.921Z,24.50
2022-11-21T14:49:56.972Z,24.40
2022-11-21T14:52:34.348Z,24.40
2022-11-21T14:55:29.122Z,24.40
2022-11-21T14:57:55.432Z,24.40
2022-11-21T15:00:58.115Z,24.30
2022-11-21T15:03:23.890Z,24.30
2022-11-21T15:06:06.323Z,24.30
2022-11-21T15:11:59.376Z,24.20
2022-11-21T15:14:59.366Z,24.20
2022-11-21T15:17:31.373Z,24.20
2022-11-21T15:20:19.978Z,24.20
2022-11-21T15:22:54.157Z,24.10
2022-11-21T15:25:28.501Z,24.10
2022-11-21T15:28:02.381Z,24.00
2022-11-21T15:30:32.389Z,24.00
2022-11-21T15:33:08.321Z,24.00
2022-11-21T15:35:55.101Z,24.00
2022-11-21T15:38:31.149Z,24.00
2022-11-21T15:41:03.767Z,23.90
2022-11-21T15:43:40.785Z,23.90
2022-11-21T15:46:22.433Z,23.90
2022-11-21T15:48:57.758Z,23.80
2022-11-21T15:54:33.510Z,23.80
2022-11-21T15:57:00.502Z,23.80
2022-11-21T15:59:27.759Z,24.70
2022-11-21T16:01:54.952Z,23.70
2022-11-21T16:04:25.528Z,23.80
2022-11-21T16:06:54.220Z,23.70
2022-11-21T16:09:21.511Z,23.70
2022-11-21T16:11:48.432Z,23.70
2022-11-21T16:14:18.507Z,23.70
2022-11-21T16:16:50.938Z,23.70
2022-11-21T16:19:18.016Z,23.60
2022-11-21T16:21:45.233Z,23.60
2022-11-21T16:24:12.155Z,23.70
2022-11-21T16:26:39.346Z,23.60
2022-11-21T16:29:06.380Z,23.60
2022-11-21T16:31:34.202Z,23.60
2022-11-21T16:34:01.383Z,23.60
2022-11-21T16:36:31.109Z,23.60
2022-11-21T16:39:05.194Z,23.60
2022-11-21T16:41:35.376Z,23.60
2022-11-21T16:44:02.627Z,23.60
2022-11-21T16:46:29.658Z,23.60
2022-11-21T16:49:02.523Z,23.60
2022-11-21T16:51:30.464Z,23.60
2022-11-21T16:54:00.654Z,23.60
2022-11-21T16:56:28.657Z,23.60
2022-11-21T16:58:56.242Z,23.60
2022-11-21T17:01:26.369Z,23.60
2022-11-21T17:03:53.805Z,23.60
2022-11-21T17:06:27.156Z,23.60
2022-11-21T17:08:54.484Z,23.60
2022-11-21T17:11:29.178Z,23.60
2022-11-21T17:14:05.172Z,23.60
2022-11-21T17:16:34.443Z,23.60
2022-11-21T17:19:04.313Z,23.50
2022-11-21T17:21:32.066Z,23.60
2022-11-21T17:23:59.620Z,23.50
2022-11-21T17:26:29.481Z,23.50
2022-11-21T17:28:59.605Z,23.40
2022-11-21T17:31:27.688Z,23.40
2022-11-21T17:33:57.595Z,23.40
2022-11-21T17:36:27.642Z,23.40
2022-11-21T17:38:58.179Z,23.60
2022-11-21T17:41:28.404Z,23.50
2022-11-21T17:43:58.018Z,23.50
2022-11-21T17:46:26.187Z,23.50
2022-11-21T17:48:58.287Z,23.50
2022-11-21T17:51:34.947Z,23.50
2022-11-21T17:54:02.921Z,23.50
2022-11-21T17:56:34.056Z,23.50
2022-11-21T17:59:01.812Z,23.50
2022-11-21T18:01:29.599Z,23.40
2022-11-21T18:04:11.699Z,23.50
2022-11-21T18:06:41.741Z,23.50
2022-11-21T18:09:11.363Z,23.40
2022-11-21T18:11:42.600Z,23.40
2022-11-21T18:14:12.453Z,23.40
2022-11-21T18:16:43.640Z,23.40
2022-11-21T18:19:14.820Z,23.40
2022-11-21T18:21:42.152Z,23.40
2022-11-21T18:24:09.476Z,23.30
2022-11-21T18:26:39.069Z,23.30
2022-11-21T18:31:56.781Z,23.30
2022-11-21T18:34:23.750Z,23.20
2022-11-21T18:36:50.774Z,23.20
2022-11-21T18:39:17.745Z,23.20
2022-11-21T18:41:44.933Z,23.20
2022-11-21T18:44:19.983Z,23.20
2022-11-21T18:46:48.860Z,23.10
2022-11-21T18:49:15.790Z,23.10
2022-11-21T18:51:42.705Z,23.10
2022-11-21T18:54:11.280Z,23.10
2022-11-21T18:56:39.966Z,23.10
2022-11-21T18:59:07.699Z,23.10
2022-11-21T19:01:37.029Z,23.00
2022-11-21T19:04:04.419Z,23.00
2022-11-21T19:06:31.960Z,23.00
2022-11-21T19:08:59.447Z,23.00
2022-11-21T19:11:30.457Z,23.00
2022-11-21T19:14:00.708Z,23.00
2022-11-21T19:16:31.359Z,22.90
2022-11-21T19:21:47.169Z,22.90
2022-11-21T19:24:15.550Z,22.90
2022-11-21T19:26:43.876Z,22.90
2022-11-21T19:29:11.497Z,22.90
2022-11-21T19:31:45.134Z,22.90
2022-11-21T19:34:17.050Z,22.90
2022-11-21T19:36:45.458Z,22.90
2022-11-21T19:39:13.097Z,22.90
2022-11-21T19:41:40.468Z,22.80
2022-11-21T19:44:07.486Z,22.80
2022-11-21T19:46:38.193Z,22.80
2022-11-21T19:49:08.325Z,22.80
2022-11-21T19:51:39.660Z,22.80
2022-11-21T19:54:08.297Z,22.80
2022-11-21T19:56:36.462Z,22.80
2022-11-21T19:59:04.561Z,22.80
2022-11-21T20:01:35.007Z,22.70
2022-11-21T20:04:04.607Z,22.70
2022-11-21T20:06:38.921Z,22.70
2022-11-21T20:09:15.699Z,22.70
2022-11-21T20:11:46.281Z,22.70
2022-11-21T20:14:21.876Z,22.70
2022-11-21T20:17:00.964Z,22.70
2022-11-21T20:19:29.538Z,22.70
2022-11-21T20:21:56.622Z,22.70
2022-11-21T20:24:23.607Z,22.70
2022-11-21T20:26:50.934Z,22.60
2022-11-21T20:29:18.023Z,22.60
2022-11-21T20:31:45.230Z,22.60
2022-11-21T20:34:16.867Z,22.60
2022-11-21T20:36:44.537Z,22.60
2022-11-21T20:39:17.577Z,22.60
2022-11-21T20:41:47.196Z,22.60
2022-11-21T20:47:09.824Z,22.60
2022-11-21T20:49:36.904Z,22.50
2022-11-21T20:54:51.556Z,22.50
2022-11-21T20:57:18.553Z,22.50
2022-11-21T20:59:55.274Z,22.50
2022-11-21T21:05:04.865Z,22.50
2022-11-21T21:07:31.895Z,22.50
2022-11-21T21:10:02.912Z,22.50
2022-11-21T21:12:34.449Z,22.50
2022-11-21T21:15:01.527Z,22.40
2022-11-21T21:17:28.496Z,22.50
2022-11-21T21:19:59.348Z,22.50
2022-11-21T21:22:28.389Z,22.50
2022-11-21T21:24:55.475Z,22.40
2022-11-21T21:27:22.440Z,22.40
2022-11-21T21:29:50.742Z,22.50
2022-11-21T21:32:20.685Z,22.40
2022-11-21T21:34:47.560Z,22.40
2022-11-21T21:37:17.642Z,22.40
2022-11-21T21:39:44.892Z,22.40
2022-11-21T21:42:17.853Z,22.40
2022-11-21T21:44:44.798Z,22.40
2022-11-21T21:47:16.034Z,22.40
2022-11-21T21:49:43.385Z,22.40
2022-11-21T21:52:11.368Z,22.40
2022-11-21T21:54:38.268Z,22.40
2022-11-21T21:57:09.252Z,22.40
2022-11-21T21:59:36.690Z,22.40
2022-11-21T22:02:04.765Z,21.00
2022-11-21T22:04:34.703Z,22.30
2022-11-21T22:07:03.467Z,22.40
2022-11-21T22:09:30.897Z,22.30
2022-11-21T22:11:58.032Z,22.30
2022-11-21T22:14:25.880Z,22.30
2022-11-21T22:16:56.033Z,22.30
2022-11-21T22:19:23.436Z,22.30
2022-11-21T22:21:50.506Z,22.30
2022-11-21T22:24:25.537Z,22.30
2022-11-21T22:26:53.624Z,22.30
2022-11-21T22:29:23.060Z,22.30
2022-11-21T22:31:50.987Z,22.30
2022-11-21T22:34:18.106Z,22.30
2022-11-21T22:36:50.390Z,22.30
2022-11-21T22:39:18.180Z,22.30
2022-11-21T22:41:46.724Z,22.30
2022-11-21T22:44:13.855Z,22.20
2022-11-21T22:46:41.011Z,22.10
2022-11-21T22:49:10.530Z,22.20
2022-11-21T22:51:37.611Z,22.30
2022-11-21T22:54:06.407Z,22.20
2022-11-21T22:56:33.540Z,22.20
2022-11-21T22:59:03.932Z,22.20
2022-11-21T23:01:34.120Z,22.20
2022-11-21T23:04:01.515Z,22.20
2022-11-21T23:06:28.620Z,22.20
2022-11-21T23:08:57.029Z,22.20
2022-11-21T23:11:33.749Z,22.20
2022-11-21T23:14:03.476Z,22.20
2022-11-21T23:16:30.351Z,22.20
2022-11-21T23:18:57.376Z,22.20
2022-11-21T23:21:24.313Z,22.20
2022-11-21T23:23:51.368Z,22.20
2022-11-21T23:26:18.906Z,22.20
2022-11-21T23:28:45.803Z,22.20
2022-11-21T23:31:12.966Z,22.20
2022-11-21T23:33:39.886Z,22.20
2022-11-21T23:36:07.085Z,22.20
2022-11-21T23:38:33.987Z,22.20
2022-11-21T23:41:01.014Z,22.10
2022-11-21T23:43:27.997Z,22.10
2022-11-21T23:45:55.176Z,22.10
2022-11-21T23:48:24.249Z,22.10
2022-11-21T23:50:51.578Z,22.10
2022-11-21T23:53:19.970Z,22.10
2022-11-21T23:55:50.021Z,22.10
2022-11-21T23:58:17.503Z,22.10
